sensor_id;sensor_type;location;lat;lon;timestamp;pressure;altitude;pressure_sealevel;temperature;humidity
1736;BME280;865;53.672;10.250;2023-07-13T00:00:09;101227.69;;;15.76;100.00
1736;BME280;865;53.672;10.250;2023-07-13T00:02:36;101229.44;;;15.77;100.00
1736;BME280;865;53.672;10.250;2023-07-13T00:05:03;101209.84;;;15.59;100.00
1736;BME280;865;53.672;10.250;2023-07-13T00:07:30;101215.19;;;15.56;100.00
1736;BME280;865;53.672;10.250;2023-07-13T00:09:57;101229.91;;;15.62;100.00
1736;BME280;865;53.672;10.250;2023-07-13T00:12:30;101216.16;;;15.54;100.00
1736;BME280;865;53.672;10.250;2023-07-13T00:15:05;101206.44;;;15.29;100.00
1736;BME280;865;53.672;10.250;2023-07-13T00:17:31;101202.78;;;15.33;100.00
1736;BME280;865;53.672;10.250;2023-07-13T00:19:58;101194.47;;;15.19;100.00
1736;BME280;865;53.672;10.250;2023-07-13T00:22:25;101201.44;;;15.20;100.00
1736;BME280;865;53.672;10.250;2023-07-13T00:24:53;101205.19;;;15.13;100.00
1736;BME280;865;53.672;10.250;2023-07-13T00:27:22;101197.56;;;15.05;100.00
1736;BME280;865;53.672;10.250;2023-07-13T00:29:48;101189.16;;;14.92;100.00
1736;BME280;865;53.672;10.250;2023-07-13T00:32:15;101584.22;;;14.88;100.00
1736;BME280;865;53.672;10.250;2023-07-13T00:34:41;102026.47;;;14.87;100.00
1736;BME280;865;53.672;10.250;2023-07-13T00:37:08;101620.00;;;14.94;100.00
1736;BME280;865;53.672;10.250;2023-07-13T00:39:35;101413.41;;;14.90;100.00
1736;BME280;865;53.672;10.250;2023-07-13T00:42:03;101407.47;;;14.83;100.00
1736;BME280;865;53.672;10.250;2023-07-13T00:44:30;101390.94;;;14.79;100.00
1736;BME280;865;53.672;10.250;2023-07-13T00:46:57;101361.34;;;14.73;100.00
1736;BME280;865;53.672;10.250;2023-07-13T00:49:27;101328.06;;;14.73;100.00
1736;BME280;865;53.672;10.250;2023-07-13T00:52:02;101319.34;;;14.73;100.00
1736;BME280;865;53.672;10.250;2023-07-13T00:54:32;101317.94;;;14.59;100.00
1736;BME280;865;53.672;10.250;2023-07-13T00:57:02;101309.19;;;14.59;100.00
1736;BME280;865;53.672;10.250;2023-07-13T00:59:30;101279.56;;;14.54;100.00
1736;BME280;865;53.672;10.250;2023-07-13T01:01:57;101286.66;;;14.52;100.00
1736;BME280;865;53.672;10.250;2023-07-13T01:04:25;101284.97;;;14.48;100.00
1736;BME280;865;53.672;10.250;2023-07-13T01:06:52;101309.59;;;14.42;100.00
1736;BME280;865;53.672;10.250;2023-07-13T01:09:19;101339.56;;;14.35;100.00
1736;BME280;865;53.672;10.250;2023-07-13T01:11:47;101350.31;;;14.24;100.00
1736;BME280;865;53.672;10.250;2023-07-13T01:14:14;101335.59;;;14.19;100.00
1736;BME280;865;53.672;10.250;2023-07-13T01:16:42;101343.53;;;14.16;100.00
1736;BME280;865;53.672;10.250;2023-07-13T01:19:38;101348.00;;;14.12;100.00
1736;BME280;865;53.672;10.250;2023-07-13T01:22:14;101360.09;;;14.19;100.00
1736;BME280;865;53.672;10.250;2023-07-13T01:24:44;101369.63;;;14.22;100.00
1736;BME280;865;53.672;10.250;2023-07-13T01:27:13;101369.91;;;14.11;100.00
1736;BME280;865;53.672;10.250;2023-07-13T01:29:42;101393.59;;;14.06;100.00
1736;BME280;865;53.672;10.250;2023-07-13T01:32:14;101409.34;;;14.06;100.00
1736;BME280;865;53.672;10.250;2023-07-13T01:34:41;101433.78;;;14.08;100.00
1736;BME280;865;53.672;10.250;2023-07-13T01:37:12;101430.34;;;14.06;100.00
1736;BME280;865;53.672;10.250;2023-07-13T01:39:38;101454.78;;;14.08;100.00
1736;BME280;865;53.672;10.250;2023-07-13T01:42:05;101430.41;;;14.03;100.00
1736;BME280;865;53.672;10.250;2023-07-13T01:44:32;101429.75;;;13.95;100.00
1736;BME280;865;53.672;10.250;2023-07-13T01:46:58;101415.03;;;13.88;100.00
1736;BME280;865;53.672;10.250;2023-07-13T01:49:25;101422.03;;;13.87;100.00
1736;BME280;865;53.672;10.250;2023-07-13T01:51:51;101438.56;;;13.91;100.00
1736;BME280;865;53.672;10.250;2023-07-13T01:54:18;101427.22;;;13.89;100.00
1736;BME280;865;53.672;10.250;2023-07-13T01:56:44;101418.56;;;13.85;100.00
1736;BME280;865;53.672;10.250;2023-07-13T01:59:12;101420.25;;;13.89;100.00
1736;BME280;865;53.672;10.250;2023-07-13T02:01:38;101435.00;;;13.94;100.00
1736;BME280;865;53.672;10.250;2023-07-13T02:04:05;101438.56;;;13.91;100.00
1736;BME280;865;53.672;10.250;2023-07-13T02:06:31;101443.72;;;13.94;100.00
1736;BME280;865;53.672;10.250;2023-07-13T02:08:58;101451.59;;;13.96;100.00
1736;BME280;865;53.672;10.250;2023-07-13T02:11:25;101453.41;;;13.92;100.00
1736;BME280;865;53.672;10.250;2023-07-13T02:14:02;101468.25;;;13.91;100.00
1736;BME280;865;53.672;10.250;2023-07-13T02:16:30;101461.44;;;13.84;100.00
1736;BME280;865;53.672;10.250;2023-07-13T02:18:58;101481.50;;;13.85;100.00
1736;BME280;865;53.672;10.250;2023-07-13T02:21:26;101497.19;;;13.88;100.00
1736;BME280;865;53.672;10.250;2023-07-13T02:23:53;101498.28;;;13.78;100.00
1736;BME280;865;53.672;10.250;2023-07-13T02:26:21;101544.66;;;13.76;100.00
1736;BME280;865;53.672;10.250;2023-07-13T02:28:47;101502.81;;;13.72;100.00
1736;BME280;865;53.672;10.250;2023-07-13T02:31:15;101510.72;;;13.68;100.00
1736;BME280;865;53.672;10.250;2023-07-13T02:33:42;101516.47;;;13.86;100.00
1736;BME280;865;53.672;10.250;2023-07-13T02:36:08;101526.09;;;13.85;100.00
1736;BME280;865;53.672;10.250;2023-07-13T02:38:36;101517.22;;;13.93;100.00
1736;BME280;865;53.672;10.250;2023-07-13T02:41:04;101525.25;;;13.85;100.00
1736;BME280;865;53.672;10.250;2023-07-13T02:43:31;101551.53;;;13.82;100.00
1736;BME280;865;53.672;10.250;2023-07-13T02:45:59;101414.25;;;13.83;100.00
1736;BME280;865;53.672;10.250;2023-07-13T02:48:30;101448.41;;;13.80;100.00
1736;BME280;865;53.672;10.250;2023-07-13T02:50:57;101428.31;;;13.80;100.00
1736;BME280;865;53.672;10.250;2023-07-13T02:53:23;101415.94;;;13.85;100.00
1736;BME280;865;53.672;10.250;2023-07-13T02:55:50;101395.91;;;13.83;100.00
1736;BME280;865;53.672;10.250;2023-07-13T02:58:17;101377.59;;;13.80;100.00
1736;BME280;865;53.672;10.250;2023-07-13T03:00:46;101370.56;;;13.82;100.00
1736;BME280;865;53.672;10.250;2023-07-13T03:03:16;101385.53;;;13.78;100.00
1736;BME280;865;53.672;10.250;2023-07-13T03:05:44;101379.66;;;13.67;100.00
1736;BME280;865;53.672;10.250;2023-07-13T03:08:17;101381.25;;;13.74;100.00
1736;BME280;865;53.672;10.250;2023-07-13T03:10:44;101366.31;;;13.78;100.00
1736;BME280;865;53.672;10.250;2023-07-13T03:13:11;101409.13;;;13.78;100.00
1736;BME280;865;53.672;10.250;2023-07-13T03:15:37;101500.78;;;13.83;100.00
1736;BME280;865;53.672;10.250;2023-07-13T03:18:03;101451.16;;;13.75;100.00
1736;BME280;865;53.672;10.250;2023-07-13T03:20:33;101389.78;;;13.84;100.00
1736;BME280;865;53.672;10.250;2023-07-13T03:23:00;101393.19;;;13.86;100.00
1736;BME280;865;53.672;10.250;2023-07-13T03:25:26;101431.66;;;13.87;100.00
1736;BME280;865;53.672;10.250;2023-07-13T03:27:53;101455.16;;;13.91;100.00
1736;BME280;865;53.672;10.250;2023-07-13T03:30:20;101426.38;;;13.88;100.00
1736;BME280;865;53.672;10.250;2023-07-13T03:32:46;101427.22;;;13.90;100.00
1736;BME280;865;53.672;10.250;2023-07-13T03:35:13;101438.31;;;14.02;100.00
1736;BME280;865;53.672;10.250;2023-07-13T03:37:40;101416.03;;;13.82;100.00
1736;BME280;865;53.672;10.250;2023-07-13T03:40:10;101412.66;;;13.77;100.00
1736;BME280;865;53.672;10.250;2023-07-13T03:42:36;101397.59;;;13.85;100.00
1736;BME280;865;53.672;10.250;2023-07-13T03:45:03;101437.94;;;13.80;100.00
1736;BME280;865;53.672;10.250;2023-07-13T03:47:30;101462.16;;;13.91;100.00
1736;BME280;865;53.672;10.250;2023-07-13T03:49:56;101485.50;;;14.03;100.00
1736;BME280;865;53.672;10.250;2023-07-13T03:52:23;101479.25;;;14.09;100.00
1736;BME280;865;53.672;10.250;2023-07-13T03:54:49;101493.50;;;13.97;100.00
1736;BME280;865;53.672;10.250;2023-07-13T03:57:16;101497.06;;;13.95;100.00
1736;BME280;865;53.672;10.250;2023-07-13T03:59:43;101511.97;;;13.93;100.00
1736;BME280;865;53.672;10.250;2023-07-13T04:02:09;101542.50;;;13.97;100.00
1736;BME280;865;53.672;10.250;2023-07-13T04:04:36;101548.66;;;13.94;100.00
1736;BME280;865;53.672;10.250;2023-07-13T04:07:03;101556.25;;;14.06;100.00
1736;BME280;865;53.672;10.250;2023-07-13T04:09:29;101565.81;;;14.10;100.00
1736;BME280;865;53.672;10.250;2023-07-13T04:11:56;101579.00;;;14.07;100.00
1736;BME280;865;53.672;10.250;2023-07-13T04:14:22;101585.03;;;14.11;100.00
1736;BME280;865;53.672;10.250;2023-07-13T04:16:48;101577.19;;;14.09;100.00
1736;BME280;865;53.672;10.250;2023-07-13T04:19:15;101594.75;;;14.07;100.00
1736;BME280;865;53.672;10.250;2023-07-13T04:21:41;101598.19;;;14.09;100.00
1736;BME280;865;53.672;10.250;2023-07-13T04:24:08;101636.41;;;14.23;100.00
1736;BME280;865;53.672;10.250;2023-07-13T04:26:35;101601.31;;;14.27;100.00
1736;BME280;865;53.672;10.250;2023-07-13T04:29:02;101559.41;;;14.24;100.00
1736;BME280;865;53.672;10.250;2023-07-13T04:31:31;101572.50;;;14.24;100.00
1736;BME280;865;53.672;10.250;2023-07-13T04:33:58;101586.50;;;14.24;100.00
1736;BME280;865;53.672;10.250;2023-07-13T04:36:24;101602.31;;;14.21;100.00
1736;BME280;865;53.672;10.250;2023-07-13T04:38:53;101628.34;;;14.30;100.00
1736;BME280;865;53.672;10.250;2023-07-13T04:41:21;101638.72;;;14.36;100.00
1736;BME280;865;53.672;10.250;2023-07-13T04:43:48;101631.59;;;14.43;100.00
1736;BME280;865;53.672;10.250;2023-07-13T04:46:16;101626.56;;;14.34;100.00
1736;BME280;865;53.672;10.250;2023-07-13T04:48:46;101642.38;;;14.31;100.00
1736;BME280;865;53.672;10.250;2023-07-13T04:51:12;101675.41;;;14.41;100.00
1736;BME280;865;53.672;10.250;2023-07-13T04:53:39;101640.97;;;14.56;100.00
1736;BME280;865;53.672;10.250;2023-07-13T04:56:06;101667.94;;;14.63;100.00
1736;BME280;865;53.672;10.250;2023-07-13T04:58:33;101701.94;;;14.71;100.00
1736;BME280;865;53.672;10.250;2023-07-13T05:01:02;101756.06;;;14.78;100.00
1736;BME280;865;53.672;10.250;2023-07-13T05:03:29;101707.50;;;14.96;100.00
1736;BME280;865;53.672;10.250;2023-07-13T05:05:58;101766.72;;;15.12;100.00
1736;BME280;865;53.672;10.250;2023-07-13T05:08:25;101731.66;;;15.13;100.00
1736;BME280;865;53.672;10.250;2023-07-13T05:10:52;101674.50;;;15.23;100.00
1736;BME280;865;53.672;10.250;2023-07-13T05:13:19;101672.13;;;15.48;100.00
1736;BME280;865;53.672;10.250;2023-07-13T05:15:54;101655.06;;;15.63;100.00
1736;BME280;865;53.672;10.250;2023-07-13T05:18:21;101517.06;;;15.76;100.00
1736;BME280;865;53.672;10.250;2023-07-13T05:20:56;101400.16;;;15.86;100.00
1736;BME280;865;53.672;10.250;2023-07-13T05:23:23;102467.19;;;16.16;100.00
1736;BME280;865;53.672;10.250;2023-07-13T05:25:49;101128.78;;;16.21;100.00
1736;BME280;865;53.672;10.250;2023-07-13T05:28:15;101287.91;;;16.37;100.00
1736;BME280;865;53.672;10.250;2023-07-13T05:30:46;101320.88;;;16.49;100.00
1736;BME280;865;53.672;10.250;2023-07-13T05:33:13;101336.19;;;16.37;100.00
1736;BME280;865;53.672;10.250;2023-07-13T05:35:39;101391.22;;;16.70;100.00
1736;BME280;865;53.672;10.250;2023-07-13T05:38:06;101392.53;;;16.83;100.00
1736;BME280;865;53.672;10.250;2023-07-13T05:40:33;101403.91;;;16.85;100.00
1736;BME280;865;53.672;10.250;2023-07-13T05:42:59;101409.53;;;17.00;100.00
1736;BME280;865;53.672;10.250;2023-07-13T05:45:26;101413.25;;;16.94;100.00
1736;BME280;865;53.672;10.250;2023-07-13T05:47:52;101419.97;;;17.03;100.00
1736;BME280;865;53.672;10.250;2023-07-13T05:50:19;101468.41;;;17.25;100.00
1736;BME280;865;53.672;10.250;2023-07-13T05:52:46;101467.53;;;17.48;100.00
1736;BME280;865;53.672;10.250;2023-07-13T05:55:12;101477.94;;;17.53;100.00
1736;BME280;865;53.672;10.250;2023-07-13T05:57:39;101474.56;;;17.73;100.00
1736;BME280;865;53.672;10.250;2023-07-13T06:00:06;101468.06;;;17.35;100.00
1736;BME280;865;53.672;10.250;2023-07-13T06:02:33;101445.63;;;17.23;100.00
1736;BME280;865;53.672;10.250;2023-07-13T06:05:00;101442.31;;;16.93;100.00
1736;BME280;865;53.672;10.250;2023-07-13T06:07:26;101439.19;;;16.81;100.00
1736;BME280;865;53.672;10.250;2023-07-13T06:09:53;101426.94;;;16.54;100.00
1736;BME280;865;53.672;10.250;2023-07-13T06:12:19;101426.63;;;16.63;100.00
1736;BME280;865;53.672;10.250;2023-07-13T06:14:45;101416.88;;;16.65;100.00
1736;BME280;865;53.672;10.250;2023-07-13T06:17:12;101412.63;;;16.61;100.00
1736;BME280;865;53.672;10.250;2023-07-13T06:19:39;101434.63;;;16.60;100.00
1736;BME280;865;53.672;10.250;2023-07-13T06:22:05;101430.03;;;16.65;100.00
1736;BME280;865;53.672;10.250;2023-07-13T06:24:32;101436.69;;;16.77;100.00
1736;BME280;865;53.672;10.250;2023-07-13T06:26:58;101428.97;;;16.71;100.00
1736;BME280;865;53.672;10.250;2023-07-13T06:29:24;101428.97;;;16.71;100.00
1736;BME280;865;53.672;10.250;2023-07-13T06:31:51;101420.03;;;16.76;100.00
1736;BME280;865;53.672;10.250;2023-07-13T06:34:18;101423.56;;;16.75;100.00
1736;BME280;865;53.672;10.250;2023-07-13T06:36:44;101417.91;;;16.61;100.00
1736;BME280;865;53.672;10.250;2023-07-13T06:39:11;101420.09;;;16.73;100.00
1736;BME280;865;53.672;10.250;2023-07-13T06:41:37;101416.28;;;16.57;100.00
1736;BME280;865;53.672;10.250;2023-07-13T06:44:05;101413.75;;;16.54;100.00
1736;BME280;865;53.672;10.250;2023-07-13T06:46:33;101411.88;;;16.57;100.00
1736;BME280;865;53.672;10.250;2023-07-13T06:48:59;101416.41;;;16.54;100.00
1736;BME280;865;53.672;10.250;2023-07-13T06:51:26;101416.63;;;16.73;100.00
1736;BME280;865;53.672;10.250;2023-07-13T06:53:52;101427.25;;;16.70;100.00
1736;BME280;865;53.672;10.250;2023-07-13T06:56:20;101425.78;;;16.88;100.00
1736;BME280;865;53.672;10.250;2023-07-13T06:58:47;101440.53;;;16.93;100.00
1736;BME280;865;53.672;10.250;2023-07-13T07:01:13;101432.75;;;16.90;100.00
1736;BME280;865;53.672;10.250;2023-07-13T07:03:41;101429.34;;;16.87;100.00
1736;BME280;865;53.672;10.250;2023-07-13T07:06:14;101422.13;;;16.92;100.00
1736;BME280;865;53.672;10.250;2023-07-13T07:08:41;101430.41;;;17.06;100.00
1736;BME280;865;53.672;10.250;2023-07-13T07:11:13;101427.41;;;17.17;100.00
1736;BME280;865;53.672;10.250;2023-07-13T07:13:40;101436.56;;;17.30;100.00
1736;BME280;865;53.672;10.250;2023-07-13T07:16:07;101426.44;;;17.19;100.00
1736;BME280;865;53.672;10.250;2023-07-13T07:18:35;101425.03;;;17.34;100.00
1736;BME280;865;53.672;10.250;2023-07-13T07:21:01;101189.50;;;17.32;100.00
1736;BME280;865;53.672;10.250;2023-07-13T07:23:28;101322.72;;;17.19;100.00
1736;BME280;865;53.672;10.250;2023-07-13T07:25:55;101306.63;;;17.26;100.00
1736;BME280;865;53.672;10.250;2023-07-13T07:28:21;101308.78;;;17.39;100.00
1736;BME280;865;53.672;10.250;2023-07-13T07:30:53;101394.34;;;17.55;100.00
1736;BME280;865;53.672;10.250;2023-07-13T07:33:40;101381.28;;;17.74;100.00
1736;BME280;865;53.672;10.250;2023-07-13T07:36:07;101389.84;;;18.03;100.00
1736;BME280;865;53.672;10.250;2023-07-13T07:38:36;101415.25;;;18.05;100.00
1736;BME280;865;53.672;10.250;2023-07-13T07:41:04;101406.09;;;18.14;100.00
1736;BME280;865;53.672;10.250;2023-07-13T07:43:34;101435.91;;;18.17;100.00
1736;BME280;865;53.672;10.250;2023-07-13T07:46:04;101437.53;;;18.20;100.00
1736;BME280;865;53.672;10.250;2023-07-13T07:48:31;101439.09;;;18.04;100.00
1736;BME280;865;53.672;10.250;2023-07-13T07:50:57;101458.66;;;17.98;100.00
1736;BME280;865;53.672;10.250;2023-07-13T07:53:24;101465.44;;;18.27;100.00
1736;BME280;865;53.672;10.250;2023-07-13T07:55:50;101482.63;;;18.59;100.00
1736;BME280;865;53.672;10.250;2023-07-13T07:58:20;101468.69;;;18.98;100.00
1736;BME280;865;53.672;10.250;2023-07-13T08:00:50;101455.91;;;18.87;100.00
1736;BME280;865;53.672;10.250;2023-07-13T08:03:19;101449.91;;;18.84;100.00
1736;BME280;865;53.672;10.250;2023-07-13T08:05:48;101467.47;;;19.05;100.00
1736;BME280;865;53.672;10.250;2023-07-13T08:08:35;101443.41;;;19.11;100.00
1736;BME280;865;53.672;10.250;2023-07-13T08:11:05;101450.09;;;19.00;100.00
1736;BME280;865;53.672;10.250;2023-07-13T08:13:53;101459.72;;;19.21;100.00
1736;BME280;865;53.672;10.250;2023-07-13T08:16:21;101447.88;;;19.30;100.00
1736;BME280;865;53.672;10.250;2023-07-13T08:18:48;101452.25;;;19.31;100.00
1736;BME280;865;53.672;10.250;2023-07-13T08:21:15;101437.00;;;19.17;100.00
1736;BME280;865;53.672;10.250;2023-07-13T08:23:42;101441.44;;;19.17;100.00
1736;BME280;865;53.672;10.250;2023-07-13T08:26:09;101439.88;;;19.31;100.00
1736;BME280;865;53.672;10.250;2023-07-13T08:28:35;101442.81;;;19.44;100.00
1736;BME280;865;53.672;10.250;2023-07-13T08:31:06;101451.41;;;19.70;100.00
1736;BME280;865;53.672;10.250;2023-07-13T08:33:36;101448.59;;;19.73;100.00
1736;BME280;865;53.672;10.250;2023-07-13T08:36:03;101451.59;;;20.03;100.00
1736;BME280;865;53.672;10.250;2023-07-13T08:38:31;101450.09;;;19.97;100.00
1736;BME280;865;53.672;10.250;2023-07-13T08:40:58;101457.25;;;19.76;100.00
1736;BME280;865;53.672;10.250;2023-07-13T08:43:28;101448.09;;;19.65;100.00
1736;BME280;865;53.672;10.250;2023-07-13T08:46:05;101444.44;;;19.86;100.00
1736;BME280;865;53.672;10.250;2023-07-13T08:48:41;102481.38;;;19.96;100.00
1736;BME280;865;53.672;10.250;2023-07-13T08:51:40;100839.66;;;19.74;100.00
1736;BME280;865;53.672;10.250;2023-07-13T08:54:28;100841.66;;;20.17;100.00
1736;BME280;865;53.672;10.250;2023-07-13T08:56:58;100846.88;;;20.02;100.00
1736;BME280;865;53.672;10.250;2023-07-13T08:59:29;100853.81;;;20.35;100.00
1736;BME280;865;53.672;10.250;2023-07-13T09:02:17;100857.00;;;20.26;100.00
1736;BME280;865;53.672;10.250;2023-07-13T09:15:24;100883.00;;;19.07;100.00
1736;BME280;865;53.672;10.250;2023-07-13T09:17:55;100886.38;;;19.42;100.00
1736;BME280;865;53.672;10.250;2023-07-13T09:20:25;100892.00;;;19.69;100.00
1736;BME280;865;53.672;10.250;2023-07-13T09:22:53;100894.22;;;19.77;100.00
1736;BME280;865;53.672;10.250;2023-07-13T09:27:53;100879.91;;;20.27;100.00
1736;BME280;865;53.672;10.250;2023-07-13T09:30:32;100889.06;;;20.52;100.00
1736;BME280;865;53.672;10.250;2023-07-13T09:33:00;100880.03;;;20.70;100.00
1736;BME280;865;53.672;10.250;2023-07-13T09:35:28;100900.41;;;20.23;100.00
1736;BME280;865;53.672;10.250;2023-07-13T09:38:03;100891.72;;;20.06;100.00
1736;BME280;865;53.672;10.250;2023-07-13T09:40:43;100897.81;;;19.76;100.00
1736;BME280;865;53.672;10.250;2023-07-13T09:43:14;100895.16;;;19.76;100.00
1736;BME280;865;53.672;10.250;2023-07-13T09:45:45;100878.84;;;19.99;100.00
1736;BME280;865;53.672;10.250;2023-07-13T09:48:14;100873.69;;;20.42;100.00
1736;BME280;865;53.672;10.250;2023-07-13T09:50:42;100887.22;;;20.54;100.00
1736;BME280;865;53.672;10.250;2023-07-13T09:53:16;100898.63;;;20.84;100.00
1736;BME280;865;53.672;10.250;2023-07-13T09:55:45;100896.78;;;20.56;100.00
1736;BME280;865;53.672;10.250;2023-07-13T09:58:18;100892.06;;;20.45;100.00
1736;BME280;865;53.672;10.250;2023-07-13T10:00:58;100890.44;;;20.59;100.00
1736;BME280;865;53.672;10.250;2023-07-13T10:03:28;100907.25;;;20.88;100.00
1736;BME280;865;53.672;10.250;2023-07-13T10:06:03;100907.56;;;20.53;100.00
1736;BME280;865;53.672;10.250;2023-07-13T10:08:36;100901.44;;;20.67;100.00
1736;BME280;865;53.672;10.250;2023-07-13T10:11:24;100900.28;;;21.15;100.00
1736;BME280;865;53.672;10.250;2023-07-13T10:13:58;100901.97;;;21.16;100.00
1736;BME280;865;53.672;10.250;2023-07-13T10:16:30;100919.38;;;20.92;100.00
1736;BME280;865;53.672;10.250;2023-07-13T10:19:24;100914.19;;;21.05;100.00
1736;BME280;865;53.672;10.250;2023-07-13T10:21:55;100898.66;;;20.99;100.00
1736;BME280;865;53.672;10.250;2023-07-13T10:24:24;100897.63;;;21.44;100.00
1736;BME280;865;53.672;10.250;2023-07-13T10:27:11;100903.38;;;21.79;100.00
1736;BME280;865;53.672;10.250;2023-07-13T10:29:46;100903.97;;;21.97;100.00
1736;BME280;865;53.672;10.250;2023-07-13T10:32:14;100897.53;;;21.60;100.00
1736;BME280;865;53.672;10.250;2023-07-13T10:34:45;100901.63;;;21.37;100.00
1736;BME280;865;53.672;10.250;2023-07-13T10:37:19;100896.47;;;21.05;100.00
1736;BME280;865;53.672;10.250;2023-07-13T10:39:53;100909.00;;;21.03;100.00
1736;BME280;865;53.672;10.250;2023-07-13T10:42:37;100910.03;;;21.15;100.00
1736;BME280;865;53.672;10.250;2023-07-13T10:45:20;100895.84;;;21.45;100.00
1736;BME280;865;53.672;10.250;2023-07-13T10:47:50;100902.53;;;21.65;100.00
1736;BME280;865;53.672;10.250;2023-07-13T10:50:24;100888.41;;;21.78;100.00
1736;BME280;865;53.672;10.250;2023-07-13T10:52:53;100911.19;;;21.54;100.00
1736;BME280;865;53.672;10.250;2023-07-13T10:55:40;100893.25;;;21.72;100.00
1736;BME280;865;53.672;10.250;2023-07-13T10:58:22;100894.88;;;22.01;100.00
1736;BME280;865;53.672;10.250;2023-07-13T11:03:50;100892.53;;;22.24;100.00
1736;BME280;865;53.672;10.250;2023-07-13T11:06:40;100900.22;;;22.28;100.00
1736;BME280;865;53.672;10.250;2023-07-13T11:11:56;100898.81;;;22.23;100.00
1736;BME280;865;53.672;10.250;2023-07-13T11:15:12;100900.00;;;22.04;100.00
1736;BME280;865;53.672;10.250;2023-07-13T11:25:36;100896.53;;;21.90;100.00
1736;BME280;865;53.672;10.250;2023-07-13T11:30:43;100919.41;;;21.78;100.00
1736;BME280;865;53.672;10.250;2023-07-13T11:33:48;100919.75;;;21.45;100.00
1736;BME280;865;53.672;10.250;2023-07-13T11:36:17;100917.91;;;22.01;100.00
1736;BME280;865;53.672;10.250;2023-07-13T11:41:43;100928.41;;;21.32;100.00
1736;BME280;865;53.672;10.250;2023-07-13T11:44:18;100915.53;;;20.21;100.00
1736;BME280;865;53.672;10.250;2023-07-13T11:46:50;100920.78;;;19.42;100.00
1736;BME280;865;53.672;10.250;2023-07-13T11:49:23;100918.03;;;19.28;100.00
1736;BME280;865;53.672;10.250;2023-07-13T11:51:51;100904.97;;;19.25;100.00
1736;BME280;865;53.672;10.250;2023-07-13T11:54:31;100912.91;;;19.25;100.00
1736;BME280;865;53.672;10.250;2023-07-13T11:57:02;100920.09;;;19.05;100.00
1736;BME280;865;53.672;10.250;2023-07-13T11:59:33;100914.97;;;18.85;100.00
1736;BME280;865;53.672;10.250;2023-07-13T12:02:14;100927.34;;;19.02;100.00
1736;BME280;865;53.672;10.250;2023-07-13T12:04:42;100934.34;;;19.36;100.00
1736;BME280;865;53.672;10.250;2023-07-13T12:07:17;100933.53;;;19.51;100.00
1736;BME280;865;53.672;10.250;2023-07-13T12:09:44;100938.13;;;19.81;100.00
1736;BME280;865;53.672;10.250;2023-07-13T12:12:14;100931.88;;;19.98;100.00
1736;BME280;865;53.672;10.250;2023-07-13T12:14:40;100920.34;;;20.15;100.00
1736;BME280;865;53.672;10.250;2023-07-13T12:17:16;100931.28;;;20.09;100.00
1736;BME280;865;53.672;10.250;2023-07-13T12:19:43;100933.38;;;20.34;100.00
1736;BME280;865;53.672;10.250;2023-07-13T12:22:14;100938.44;;;20.22;100.00
1736;BME280;865;53.672;10.250;2023-07-13T12:24:43;100951.25;;;19.98;100.00
1736;BME280;865;53.672;10.250;2023-07-13T12:27:22;100960.75;;;19.53;100.00
1736;BME280;865;53.672;10.250;2023-07-13T12:29:58;100975.25;;;19.13;100.00
1736;BME280;865;53.672;10.250;2023-07-13T12:32:26;100987.88;;;18.72;100.00
1736;BME280;865;53.672;10.250;2023-07-13T12:34:56;100999.19;;;18.01;100.00
1736;BME280;865;53.672;10.250;2023-07-13T12:37:23;101007.94;;;17.43;100.00
1736;BME280;865;53.672;10.250;2023-07-13T12:39:51;101013.13;;;16.39;100.00
1736;BME280;865;53.672;10.250;2023-07-13T12:42:25;101023.78;;;16.13;100.00
1736;BME280;865;53.672;10.250;2023-07-13T12:45:05;101043.25;;;15.60;100.00
1736;BME280;865;53.672;10.250;2023-07-13T12:47:41;101046.28;;;15.75;100.00
1736;BME280;865;53.672;10.250;2023-07-13T12:50:14;101043.03;;;15.41;100.00
1736;BME280;865;53.672;10.250;2023-07-13T12:52:42;101038.75;;;15.39;100.00
1736;BME280;865;53.672;10.250;2023-07-13T12:55:17;101027.28;;;15.41;100.00
1736;BME280;865;53.672;10.250;2023-07-13T12:57:49;101014.78;;;15.23;100.00
1736;BME280;865;53.672;10.250;2023-07-13T13:00:29;101007.03;;;15.43;100.00
1736;BME280;865;53.672;10.250;2023-07-13T13:03:04;100999.50;;;15.58;100.00
1736;BME280;865;53.672;10.250;2023-07-13T13:05:57;100994.06;;;15.87;100.00
1736;BME280;865;53.672;10.250;2023-07-13T13:08:25;100987.19;;;16.07;100.00
1736;BME280;865;53.672;10.250;2023-07-13T13:10:52;100991.66;;;16.27;100.00
1736;BME280;865;53.672;10.250;2023-07-13T13:13:18;100982.22;;;16.65;100.00
1736;BME280;865;53.672;10.250;2023-07-13T13:15:45;100986.34;;;16.72;100.00
1736;BME280;865;53.672;10.250;2023-07-13T13:18:16;100975.34;;;16.83;100.00
1736;BME280;865;53.672;10.250;2023-07-13T13:20:43;100981.88;;;16.95;100.00
1736;BME280;865;53.672;10.250;2023-07-13T13:23:18;100985.19;;;17.20;100.00
1736;BME280;865;53.672;10.250;2023-07-13T13:25:46;100990.13;;;17.28;100.00
1736;BME280;865;53.672;10.250;2023-07-13T13:28:16;100992.44;;;17.36;100.00
1736;BME280;865;53.672;10.250;2023-07-13T13:30:44;100985.56;;;17.52;100.00
1736;BME280;865;53.672;10.250;2023-07-13T13:33:13;100990.06;;;17.29;100.00
1736;BME280;865;53.672;10.250;2023-07-13T13:35:41;100988.63;;;17.22;100.00
1736;BME280;865;53.672;10.250;2023-07-13T13:40:38;100982.56;;;17.41;100.00
1736;BME280;865;53.672;10.250;2023-07-13T13:43:14;100980.69;;;17.43;100.00
1736;BME280;865;53.672;10.250;2023-07-13T13:45:42;100986.19;;;17.57;100.00
1736;BME280;865;53.672;10.250;2023-07-13T13:48:20;100989.63;;;17.59;100.00